Flight Track Log - Related Links

Times and Time Zones

All times are in EDT time to prevent confusion due to time zone crossing. See the N53NW flight status page for this flight to view local times or setup timezone preferences in your user account.

Time Position Orientation Groundspeed Altitude Reporting Facility
EDT Latitude Longitude Course Direction KTS MPH feet Rate Location/Type
Fri 11:57:21 AM 41.8547 -87.7225 52° Northeast 261 300 3,100  Level Chicago Center
Fri 11:58:24 AM 41.8328 -87.6286 107° East 265 305 4,000 2,016 Climbing Chicago Center
Fri 11:59:29 AM 41.8325 -87.5058 90° East 273 314 7,400 3,969 Climbing Chicago Center
Fri 12:00:31 PM 41.8219 -87.4000 98° East 292 336 12,400 3,677 Climbing Chicago Center
Fri 12:01:33 PM 41.7919 -87.2875 110° East 320 368 15,000 1,645 Climbing Chicago Center
Fri 12:02:35 PM 41.7758 -87.1622 100° East 338 389 15,800 1,452 Climbing Chicago Center
Fri 12:03:37 PM 41.7622 -87.0350 98° East 349 402 18,000 2,371 Climbing Chicago Center
Fri 12:04:39 PM 41.7636 -86.9019 89° East 358 412 20,700 1,452 Climbing Chicago Center
Fri 12:05:41 PM 41.7656 -86.7322 89° East 376 433 21,000 145 Climbing Chicago Center
Fri 12:06:43 PM 41.7661 -86.5869 90° East 386 444 21,000  Level Chicago Center
Fri 12:07:46 PM 41.7669 -86.4453 90° East 381 438 21,000  Level Chicago Center
Fri 12:08:48 PM 41.7686 -86.3033 89° East 381 438 21,000 919 Level Chicago Center
Fri 12:09:50 PM 41.7647 -86.1606 92° East 383 441 22,900 968 Climbing Chicago Center
Fri 12:10:52 PM 41.7600 -86.0125 92° East 395 455 23,000 48 Climbing Chicago Center
Fri 12:11:54 PM 41.6944 -85.8833 124° Southeast 430 495 23,000 -242 Level Chicago Center
Fri 12:12:56 PM 41.5936 -85.7478 135° Southeast 432 497 22,500 -968 Descending Chicago Center
Fri 12:13:58 PM 41.5111 -85.6372 135° Southeast 430 495 21,000 -726 Descending Chicago Center
Fri 12:15:00 PM 41.4342 -85.5322 134° Southeast 409 471 21,000  Level Chicago Center
Fri 12:16:02 PM 41.3519 -85.4236 135° Southeast 420 483 21,000  Level Chicago Center
Fri 12:17:04 PM 41.2533 -85.2914 135° Southeast 422 486 21,000  Level Chicago Center
Fri 12:18:06 PM 41.1703 -85.1833 136° Southeast 422 486 21,000 -528 Level Chicago Center
Fri 12:19:09 PM 41.0889 -85.0753 135° Southeast 418 481 19,900 -1,296 Descending Chicago Center
Fri 12:20:11 PM 41.0089 -84.9689 135° Southeast 412 474 18,300 -1,355 Descending Chicago Center
Fri 12:21:13 PM 40.9314 -84.8678 135° Southeast 400 460 17,100 -1,500 Descending Chicago Center
Fri 12:22:15 PM 40.8428 -84.7514 135° Southeast 382 440 15,200 -1,016 Descending Chicago Center
Fri 12:23:17 PM 40.7731 -84.6614 136° Southeast 361 415 15,000 -130 Descending Chicago Center
Fri 12:23:47 PM 40.7406 -84.6197 136° Southeast 348 400 15,000 -652 Level Indianapolis Center
Fri 12:24:49 PM 40.6719 -84.5319 136° Southeast 344 396 14,000 -1,210 Descending Indianapolis Center
Fri 12:25:51 PM 40.6067 -84.4478 136° Southeast 332 382 12,500 -1,412 Descending Indianapolis Center
Fri 12:26:14 PM 40.5686 -84.4242 155° Southeast 314 361 12,000 -1,258 Descending Indianapolis Center
Fri 12:26:53 PM 40.5269 -84.4142 170° South 306 352 11,200 -1,522 Descending Indianapolis Center
Fri 12:27:21 PM 40.4722 -84.4008 169° South 298 343 10,300 -1,065 Descending Indianapolis Center
Fri 12:27:55 PM 40.4444 -84.3964 173° South 303 349 10,100 -197 Descending Indianapolis Center
Fri 12:28:22 PM 40.3917 -84.3861 172° South 293 337 10,100 -97 Level Indianapolis Center
Fri 12:28:57 PM 40.3506 -84.3778 171° South 291 335 10,000  Descending Indianapolis Center
Fri 12:29:23 PM 40.3133 -84.3717 173° South 284 327 10,100 -97 Climbing Indianapolis Center
Fri 12:29:59 PM 40.2725 -84.3617 169° South 286 329 9,900 -896 Descending Indianapolis Center
Fri 12:30:30 PM 40.2289 -84.3536 172° South 283 326 9,100 -1,548 Descending Indianapolis Center
Fri 12:31:01 PM 40.1969 -84.3481 172° South 281 323 8,300 -1,672 Descending Indianapolis Center
Fri 12:31:31 PM 40.1547 -84.3375 169° South 253 291 7,400 -1,452 Descending Indianapolis Center
Fri 12:32:03 PM 40.1286 -84.3319 171° South 262 302 6,800 -1,279 Descending Indianapolis Center
Fri 12:32:32 PM 40.0847 -84.3247 173° South 252 290 6,100 -677 Descending Indianapolis Center
Fri 12:33:05 PM 40.0550 -84.3186 171° South 261 300 6,100 -222 Level Indianapolis Center
Fri 12:33:26 PM 40.0167 -84.3097 170° South 267 307 5,900 -1,161 Descending Indianapolis Center
Fri 12:34:07 PM 39.9697 -84.3014 172° South 262 302 4,900 -1,433 Descending Indianapolis Center
Fri 12:34:33 PM 39.9444 -84.2967 172° South 238 274 4,300 -774 Descending Indianapolis Center
Fri 12:35:09 PM 39.9081 -84.2894 171° South 247 284 4,100 -214 Descending Indianapolis Center
Fri 12:35:29 PM 39.8892 -84.2839 167° South 220 253 4,100  Level Indianapolis Center
Fri 12:36:11 PM 39.8467 -84.2767 173° South 233 268 4,100  Level Indianapolis Center
Fri 12:36:29 PM 39.8189 -84.2714 172° South 242 278 4,100 -194 Level Indianapolis Center
Fri 12:37:13 PM 39.7811 -84.2631 170° South 233 268 3,900 -590 Descending Indianapolis Center
Fri 12:37:30 PM 39.7528 -84.2594 174° South 241 277 3,500 -774 Descending Indianapolis Center
Fri 12:38:15 PM 39.7144 -84.2511 171° South 237 273 3,100 -533 Descending Indianapolis Center
Fri 12:40:00 PM 39.5833 -84.2167 201° Southwest  Level FlightAware Approximate
Fri 12:47:00 PM 39.5890 -84.2249 201° Southwest  Level Estimated
Fri 12:48:00 PM 39.5890 -84.2249 201° Southwest  Level Estimated

Login

Don't have an account? Register now (free) for customized features, flight alerts, and more!